HEBA/HBE METAR and TAF weather

Enter ICAO airport designator
Station Type Date Time Source
HEBA METAR 2022/06/27 17:00 UTC NOAA

HEBA 271700Z 31012KT CAVOK 25/18 Q1009 NOSIG


Station Type Date Time Source
HEBA Decoded METAR 2022/06/27 17:00 UTC NOAA

Alexandria Borg El Arab, Egypt (HEBA) 31-31N 030-10E
Jun 27, 2022 - 01:00 PM EDT / 2022.06.27 1700 UTC
Wind: from the NW (310 degrees) at 14 MPH (12 KT):0
Visibility: greater than 7 mile(s):0
Temperature: 77 F (25 C)
Dew Point: 64 F (18 C)
Relative Humidity: 65%
Pressure (altimeter): 29.80 in. Hg (1009 hPa)
ob: HEBA 271700Z 31012KT CAVOK 25/18 Q1009 NOSIG
cycle: 17

Station Type Date Time Source
HEBA TAF 2022/06/27 18:30 UTC NOAA

TAF HEBA 271700Z 2718/2824 31014KT CAVOK

Example: see airport list